Time;durP1;ratioP1;P1;durP2;ratioP2;P2;SDS_P1;SDS_P2;PMS_P1;PMS_P2;Temp;Humidity;BMP_temperature;BMP_pressure;BME280_temperature;BME280_humidity;BME280_pressure;Samples;Min_cycle;Max_cycle;Signal;HPM_P1;HPM_P2
2021/05/07 00:01:49;;;;;;;3.62;2.08;;;;;;;10.12;52.33;97037.13;1817276;78;21496;-73
2021/05/07 00:04:17;;;;;;;2.85;1.57;;;;;;;10.12;52.32;97036.58;1821073;78;21528;-73
2021/05/07 00:06:44;;;;;;;2.70;1.72;;;;;;;10.13;52.66;97034.67;1817233;78;21082;-73
2021/05/07 00:09:10;;;;;;;2.42;1.40;;;;;;;10.11;52.72;97029.56;1791701;78;21079;-73
2021/05/07 00:11:36;;;;;;;1.70;0.90;;;;;;;10.10;52.57;97022.55;1817305;78;21197;-73
2021/05/07 00:14:02;;;;;;;2.00;1.32;;;;;;;10.12;52.18;97024.95;1821093;78;21138;-73
2021/05/07 00:16:29;;;;;;;3.08;2.22;;;;;;;10.11;52.37;97015.23;1817345;78;21178;-73
2021/05/07 00:18:55;;;;;;;3.20;1.22;;;;;;;10.10;52.41;97014.98;1821026;78;21162;-73
2021/05/07 00:21:21;;;;;;;2.58;1.60;;;;;;;10.13;52.57;97015.72;1817214;79;21555;-73
2021/05/07 00:23:47;;;;;;;4.80;1.50;;;;;;;10.10;53.16;97009.56;1821004;78;22123;-73
2021/05/07 00:26:14;;;;;;;3.72;2.22;;;;;;;10.08;53.52;96998.22;1817169;79;21145;-73
2021/05/07 00:28:40;;;;;;;1.85;1.00;;;;;;;10.04;53.23;97003.44;1820963;78;21182;-73
2021/05/07 00:31:06;;;;;;;3.02;1.22;;;;;;;10.04;53.45;96989.91;1817209;79;21190;-73
2021/05/07 00:33:32;;;;;;;4.85;1.95;;;;;;;10.00;53.45;96997.56;1821046;78;21142;-73
2021/05/07 00:35:58;;;;;;;2.37;1.30;;;;;;;9.98;53.45;96977.56;1817277;79;21487;-73
2021/05/07 00:38:25;;;;;;;2.45;1.30;;;;;;;9.99;53.39;96965.64;1820877;78;21095;-73
2021/05/07 00:40:51;;;;;;;1.90;0.80;;;;;;;9.97;53.43;96963.80;1817271;78;21150;-73
2021/05/07 00:43:17;;;;;;;1.32;0.90;;;;;;;9.98;54.00;96965.95;1821005;78;21016;-73
2021/05/07 00:45:43;;;;;;;1.82;0.93;;;;;;;9.95;53.98;96959.23;1817302;78;21567;-73
2021/05/07 00:48:11;;;;;;;2.55;1.40;;;;;;;9.95;54.69;96957.08;1820979;78;21138;-73
2021/05/07 00:50:40;;;;;;;4.08;2.30;;;;;;;9.87;54.67;96958.03;1817580;79;21087;-73
2021/05/07 00:53:06;;;;;;;2.80;1.60;;;;;;;9.83;54.66;96958.40;1821126;78;21536;-73
2021/05/07 00:55:34;;;;;;;2.87;1.90;;;;;;;9.81;54.81;96963.28;1817341;78;21540;-73
2021/05/07 00:58:01;;;;;;;4.97;1.57;;;;;;;9.80;55.21;96967.64;1820954;78;21102;-73
2021/05/07 01:00:28;;;;;;;2.95;1.67;;;;;;;9.78;55.85;96957.68;1814512;78;21194;-73
2021/05/07 01:02:54;;;;;;;3.62;1.82;;;;;;;9.77;55.95;96959.59;1820839;78;21123;-73
2021/05/07 01:05:20;;;;;;;1.72;1.00;;;;;;;9.71;56.36;96955.37;1817382;78;21530;-73
2021/05/07 01:07:48;;;;;;;2.83;1.10;;;;;;;9.65;58.63;96943.58;1821021;78;21048;-73
2021/05/07 01:10:15;;;;;;;2.22;0.88;;;;;;;9.58;58.52;96941.30;1817355;79;21518;-73
2021/05/07 01:12:42;;;;;;;1.17;1.00;;;;;;;9.62;57.78;96931.47;1820956;78;21194;-73
2021/05/07 01:15:17;;;;;;;3.60;1.37;;;;;;;9.66;57.27;96927.63;1817203;79;21110;-73
2021/05/07 01:17:46;;;;;;;1.85;1.27;;;;;;;9.69;56.96;96918.35;1820954;78;21111;-74
2021/05/07 01:20:22;;;;;;;10.68;3.20;;;;;;;9.72;56.98;96915.04;1817362;78;21161;-73
2021/05/07 01:22:53;;;;;;;4.37;2.00;;;;;;;9.74;56.73;96930.44;1820970;78;21071;-73
2021/05/07 01:25:25;;;;;;;5.37;2.52;;;;;;;9.75;56.68;96927.18;1817434;78;22073;-73
2021/05/07 01:27:55;;;;;;;4.78;2.15;;;;;;;9.77;56.57;96924.42;1820914;78;21067;-72
2021/05/07 01:30:31;;;;;;;3.20;1.40;;;;;;;9.77;56.55;96927.13;1817237;79;21091;-73
2021/05/07 01:32:58;;;;;;;1.75;1.20;;;;;;;9.78;56.48;96939.55;1821016;78;21020;-73
2021/05/07 01:35:27;;;;;;;2.45;1.10;;;;;;;9.77;56.48;96940.65;1817372;79;21495;-73
2021/05/07 01:37:56;;;;;;;2.42;1.95;;;;;;;9.76;56.40;96935.55;1820448;78;22057;-73
2021/05/07 01:40:27;;;;;;;6.97;1.70;;;;;;;9.76;56.46;96929.58;1817350;78;21507;-73
2021/05/07 01:42:54;;;;;;;2.95;1.37;;;;;;;9.77;56.62;96924.97;1820943;78;21115;-72
2021/05/07 01:45:26;;;;;;;3.85;2.08;;;;;;;9.75;56.49;96922.57;1787715;79;21141;-73
2021/05/07 01:47:53;;;;;;;4.95;2.17;;;;;;;9.76;56.64;96925.52;1820412;78;21150;-72
2021/05/07 01:50:25;;;;;;;2.62;1.57;;;;;;;9.76;56.62;96916.61;1817231;79;21183;-72
2021/05/07 01:52:51;;;;;;;2.12;1.42;;;;;;;9.74;57.11;96907.45;1820909;78;21055;-73
2021/05/07 01:55:21;;;;;;;6.28;3.22;;;;;;;9.72;57.18;96906.92;1817309;79;21083;-72
2021/05/07 01:57:48;;;;;;;4.58;2.00;;;;;;;9.66;57.21;96898.67;1821025;78;21035;-73
2021/05/07 02:00:17;;;;;;;9.40;3.40;;;;;;;9.64;57.09;96906.27;1817447;79;21528;-73
2021/05/07 02:02:43;;;;;;;5.05;2.50;;;;;;;9.64;57.47;96899.50;1820730;78;21438;-73
2021/05/07 02:05:10;;;;;;;8.53;2.98;;;;;;;9.64;57.29;96891.39;1817436;79;21137;-73
2021/05/07 02:07:36;;;;;;;5.08;2.55;;;;;;;9.63;57.39;96891.14;1821125;78;21083;-73
2021/05/07 02:10:08;;;;;;;8.03;3.70;;;;;;;9.64;57.68;96891.95;1817410;79;21160;-73
2021/05/07 02:12:35;;;;;;;4.17;1.77;;;;;;;9.63;57.76;96881.68;1821108;78;21063;-72
2021/05/07 02:15:01;;;;;;;4.83;1.67;;;;;;;9.65;57.84;96874.61;1817488;79;21196;-72
2021/05/07 02:17:27;;;;;;;7.00;2.47;;;;;;;9.69;57.63;96868.31;1821046;78;21016;-73
2021/05/07 02:19:53;;;;;;;7.37;2.75;;;;;;;9.71;57.89;96875.56;1817351;79;21110;-72
2021/05/07 02:22:19;;;;;;;4.33;1.87;;;;;;;9.73;57.69;96884.73;1821135;78;21047;-72
2021/05/07 02:24:46;;;;;;;4.87;1.80;;;;;;;9.73;57.58;96898.25;1817528;79;21154;-72
2021/05/07 02:27:12;;;;;;;4.35;1.40;;;;;;;9.71;57.45;96901.81;1821079;78;21186;-73
2021/05/07 02:29:38;;;;;;;4.37;1.95;;;;;;;9.71;57.47;96909.94;1787847;79;21154;-72
2021/05/07 02:32:05;;;;;;;2.67;1.37;;;;;;;9.71;57.52;96905.87;1821114;78;21461;-72
2021/05/07 02:34:31;;;;;;;4.22;1.87;;;;;;;9.69;57.54;96896.72;1817372;79;21519;-73
2021/05/07 02:36:57;;;;;;;1.95;1.35;;;;;;;9.69;58.53;96891.86;1821089;78;21012;-72
2021/05/07 02:39:23;;;;;;;2.17;1.45;;;;;;;9.63;59.11;96893.05;1817430;79;21240;-72
2021/05/07 02:41:49;;;;;;;8.93;3.08;;;;;;;9.60;58.96;96897.16;1820993;78;21064;-73
2021/05/07 02:44:16;;;;;;;7.80;3.40;;;;;;;9.59;58.65;96895.02;1817377;79;21103;-73
2021/05/07 02:46:42;;;;;;;4.78;2.30;;;;;;;9.56;60.51;96883.42;1791189;78;21174;-72
2021/05/07 02:49:08;;;;;;;5.00;1.77;;;;;;;9.56;59.59;96890.19;1817371;79;21028;-72
2021/05/07 02:51:34;;;;;;;3.47;1.20;;;;;;;9.60;59.92;96878.23;1821044;78;21186;-72
2021/05/07 02:54:01;;;;;;;3.70;1.70;;;;;;;9.68;59.59;96869.97;1820164;78;21047;-72
2021/05/07 02:56:28;;;;;;;1.85;1.40;;;;;;;9.74;59.84;96880.91;1824357;78;21190;-72
2021/05/07 02:58:54;;;;;;;2.42;2.02;;;;;;;9.76;59.67;96878.18;1820481;78;21166;-72
2021/05/07 03:01:20;;;;;;;3.58;1.45;;;;;;;9.81;59.49;96881.31;1824284;78;21516;-72
2021/05/07 03:03:46;;;;;;;3.30;2.20;;;;;;;9.82;59.31;96878.30;1820477;78;22113;-72
2021/05/07 03:06:13;;;;;;;17.23;5.20;;;;;;;9.81;59.12;96879.41;1796748;78;21186;-72
2021/05/07 03:08:39;;;;;;;4.20;2.75;;;;;;;9.84;58.97;96880.18;1820435;78;21071;-72
2021/05/07 03:11:05;;;;;;;3.50;1.92;;;;;;;9.85;58.87;96880.42;1824188;78;21121;-72
2021/05/07 03:13:32;;;;;;;2.90;1.67;;;;;;;9.83;58.75;96875.08;1820470;78;21023;-72
2021/05/07 03:15:58;;;;;;;3.60;2.02;;;;;;;9.80;58.74;96877.81;1824356;78;21188;-72
2021/05/07 03:18:26;;;;;;;3.15;2.80;;;;;;;9.77;58.72;96874.38;1820362;78;21086;-72
2021/05/07 03:20:52;;;;;;;3.20;2.25;;;;;;;9.77;58.65;96874.92;1824304;78;21512;-73
2021/05/07 03:23:18;;;;;;;4.20;1.55;;;;;;;9.75;58.98;96864.96;1820452;78;21023;-73
2021/05/07 03:25:45;;;;;;;2.10;1.30;;;;;;;9.73;58.79;96873.36;1824370;78;21130;-73
2021/05/07 03:28:11;;;;;;;3.35;1.55;;;;;;;9.74;58.78;96867.39;1820490;78;21275;-73
2021/05/07 03:30:38;;;;;;;2.12;1.52;;;;;;;9.73;59.08;96863.88;1824105;78;21159;-73
2021/05/07 03:33:05;;;;;;;3.62;1.50;;;;;;;9.74;58.90;96863.33;1820525;78;21119;-73
2021/05/07 03:35:32;;;;;;;4.40;1.87;;;;;;;9.76;58.76;96874.13;1824300;78;21059;-73
2021/05/07 03:37:58;;;;;;;6.08;2.42;;;;;;;9.77;58.75;96870.31;1820444;78;21035;-73
2021/05/07 03:40:25;;;;;;;24.63;5.40;;;;;;;9.77;58.82;96851.38;1824263;78;21279;-73
2021/05/07 03:42:51;;;;;;;24.90;6.15;;;;;;;9.76;58.83;96848.42;1820390;78;21472;-73
2021/05/07 03:45:17;;;;;;;24.75;6.35;;;;;;;9.74;58.96;96841.17;1824222;78;21158;-73
2021/05/07 03:47:43;;;;;;;12.10;5.17;;;;;;;9.70;59.07;96840.70;1820405;78;21102;-73
2021/05/07 03:50:11;;;;;;;8.60;4.10;;;;;;;9.66;59.36;96841.08;1796798;78;21161;-73
2021/05/07 03:52:37;;;;;;;8.10;3.37;;;;;;;9.63;59.71;96853.28;1812900;78;21186;-73
2021/05/07 03:55:06;;;;;;;3.52;1.80;;;;;;;9.63;59.55;96860.05;1787304;80;21142;-73
2021/05/07 03:57:33;;;;;;;5.25;2.17;;;;;;;9.62;59.51;96855.73;1817976;79;21118;-73
2021/05/07 03:59:59;;;;;;;4.97;2.58;;;;;;;9.61;60.13;96868.46;1787370;80;21094;-73
2021/05/07 04:02:26;;;;;;;4.85;2.20;;;;;;;9.64;59.74;96871.66;1817871;78;21111;-73
2021/05/07 04:04:52;;;;;;;6.65;3.20;;;;;;;9.65;59.78;96874.61;1787470;80;22260;-73
2021/05/07 04:07:19;;;;;;;4.55;1.82;;;;;;;9.70;60.01;96878.58;1817836;79;21023;-73
2021/05/07 04:09:54;;;;;;;3.87;2.52;;;;;;;9.77;60.39;96878.42;1787340;80;21133;-73
2021/05/07 04:12:23;;;;;;;5.87;2.65;;;;;;;9.88;60.66;96885.78;1816999;79;21130;-73
2021/05/07 04:14:44;;;;;;;7.17;3.02;;;;;;;9.98;60.92;96885.56;1813569;79;21103;-73
2021/05/07 04:17:11;;;;;;;5.05;1.82;;;;;;;10.09;60.95;96888.88;1784103;80;22337;-73
2021/05/07 04:19:37;;;;;;;6.00;3.40;;;;;;;10.18;60.49;96885.69;1815444;79;21035;-73
2021/05/07 04:22:03;;;;;;;7.30;3.33;;;;;;;10.24;60.38;96897.22;1801438;79;21094;-73
2021/05/07 04:24:29;;;;;;;6.12;3.10;;;;;;;10.29;60.23;96901.19;1801342;79;21026;-73
2021/05/07 04:26:55;;;;;;;4.08;2.50;;;;;;;10.35;60.16;96895.91;1817860;79;21067;-73
2021/05/07 04:29:22;;;;;;;5.03;2.42;;;;;;;10.43;59.93;96889.22;1785753;80;21464;-73
2021/05/07 04:31:49;;;;;;;3.17;2.10;;;;;;;10.53;59.73;96887.38;1787317;80;21091;-73
2021/05/07 04:34:15;;;;;;;4.62;1.55;;;;;;;10.68;59.56;96885.12;1817839;79;21099;-73
2021/05/07 04:36:41;;;;;;;5.03;2.72;;;;;;;10.89;59.43;96889.48;1787351;80;21024;-74
2021/05/07 04:39:08;;;;;;;5.95;2.95;;;;;;;10.88;59.36;96883.81;1817859;79;21126;-73
2021/05/07 04:41:35;;;;;;;6.22;2.37;;;;;;;10.96;58.97;96878.20;1787368;80;21181;-73
2021/05/07 04:44:01;;;;;;;20.50;11.30;;;;;;;10.96;58.97;96878.20;1817767;79;21039;-73
2021/05/07 04:46:28;;;;;;;26.60;19.73;;;;;;;11.05;58.95;96885.83;1817927;79;21554;-73
2021/05/07 04:48:54;;;;;;;9.23;5.50;;;;;;;11.18;58.77;96890.91;1817824;79;21111;-74
2021/05/07 04:51:21;;;;;;;6.03;2.45;;;;;;;11.18;58.71;96886.30;1760753;80;21511;-73
2021/05/07 04:53:47;;;;;;;11.18;5.53;;;;;;;11.18;58.71;96886.30;1816538;78;22062;-73
2021/05/07 04:56:13;;;;;;;4.30;2.77;;;;;;;11.33;58.47;96889.17;1815504;79;21150;-74
2021/05/07 04:58:39;;;;;;;5.25;2.20;;;;;;;11.49;58.19;96899.06;1815516;79;21019;-73
2021/05/07 05:01:05;;;;;;;2.90;2.10;;;;;;;11.64;58.15;96897.86;1831848;78;21150;-74
2021/05/07 05:03:31;;;;;;;5.15;2.37;;;;;;;11.67;57.88;96904.80;1815520;79;21038;-74
2021/05/07 05:05:58;;;;;;;3.50;2.12;;;;;;;11.75;57.81;96907.31;1831795;78;21542;-73
2021/05/07 05:08:24;;;;;;;5.58;2.85;;;;;;;11.88;57.37;96912.39;1815511;79;21487;-74
2021/05/07 05:10:58;;;;;;;4.20;2.25;;;;;;;11.81;57.41;96920.46;1831764;78;21491;-73
2021/05/07 05:13:24;;;;;;;3.60;2.02;;;;;;;11.82;57.40;96908.48;1815429;79;21118;-73
2021/05/07 05:15:55;;;;;;;5.97;2.90;;;;;;;11.85;57.41;96907.05;1831667;78;21122;-73
2021/05/07 05:18:35;;;;;;;2.90;2.20;;;;;;;11.97;57.27;96906.47;1815470;79;21190;-72
2021/05/07 05:21:03;;;;;;;4.00;1.87;;;;;;;12.06;57.02;96906.72;1831762;78;21461;-73
2021/05/07 05:23:29;;;;;;;4.15;2.35;;;;;;;12.12;56.80;96914.95;1815616;79;21043;-73
2021/05/07 05:25:56;;;;;;;7.30;3.20;;;;;;;12.20;56.76;96918.00;1831815;78;21138;-73
2021/05/07 05:28:22;;;;;;;3.80;3.40;;;;;;;12.26;56.63;96912.11;1815491;79;21110;-74
2021/05/07 05:30:49;;;;;;;2.83;1.90;;;;;;;12.32;56.58;96904.62;1806128;78;21133;-73
2021/05/07 05:33:15;;;;;;;5.45;1.95;;;;;;;12.35;56.10;96907.48;1815608;79;21158;-73
2021/05/07 05:35:41;;;;;;;4.90;2.25;;;;;;;12.27;56.17;96906.91;1831855;78;21551;-73
2021/05/07 05:38:07;;;;;;;2.85;1.72;;;;;;;12.31;56.00;96897.59;1815648;79;21036;-73
2021/05/07 05:40:33;;;;;;;6.45;1.95;;;;;;;12.37;55.88;96899.02;1831913;78;21098;-73
2021/05/07 05:43:01;;;;;;;5.45;3.85;;;;;;;12.36;55.86;96897.42;1815651;79;21263;-73
2021/05/07 05:45:27;;;;;;;3.42;2.22;;;;;;;12.49;55.83;96908.71;1831760;78;21107;-73
2021/05/07 05:48:13;;;;;;;6.87;6.17;;;;;;;12.71;55.23;96901.75;1815654;79;21543;-73
2021/05/07 05:50:47;;;;;;;4.37;2.20;;;;;;;12.83;55.12;96901.68;1831965;78;21071;-72
2021/05/07 05:53:14;;;;;;;3.12;1.62;;;;;;;12.97;54.41;96890.05;1815972;79;21034;-72
2021/05/07 05:55:40;;;;;;;3.95;1.80;;;;;;;12.90;54.64;96899.25;1821207;78;21200;-73
2021/05/07 05:58:06;;;;;;;1.85;1.32;;;;;;;12.90;54.39;96892.45;1787896;79;21158;-73
2021/05/07 06:00:32;;;;;;;2.58;1.60;;;;;;;12.82;54.30;96904.96;1821166;78;21138;-72
2021/05/07 06:02:58;;;;;;;3.85;2.47;;;;;;;12.75;54.17;96898.41;1817406;79;21421;-73
2021/05/07 06:05:25;;;;;;;3.33;2.12;;;;;;;12.69;54.38;96909.42;1821145;78;21170;-73
2021/05/07 06:07:51;;;;;;;3.75;1.57;;;;;;;12.73;54.46;96908.78;1817359;79;21134;-72
2021/05/07 06:10:18;;;;;;;3.65;2.00;;;;;;;12.84;54.30;96910.87;1821088;78;21114;-73
2021/05/07 06:12:46;;;;;;;3.42;1.60;;;;;;;12.91;53.94;96926.70;1817400;79;21115;-72
2021/05/07 06:15:12;;;;;;;3.72;2.15;;;;;;;13.12;53.81;96928.19;1821150;78;21510;-72
2021/05/07 06:17:39;;;;;;;3.58;2.15;;;;;;;13.27;53.28;96922.28;1817477;79;21412;-73
2021/05/07 06:20:07;;;;;;;6.58;2.12;;;;;;;13.21;53.34;96929.00;1821126;78;21197;-72
2021/05/07 06:22:34;;;;;;;3.47;2.10;;;;;;;13.31;53.28;96931.94;1817357;79;21530;-72
2021/05/07 06:25:00;;;;;;;2.70;1.30;;;;;;;13.41;52.93;96924.80;1821071;78;21027;-72
2021/05/07 06:27:27;;;;;;;3.80;1.72;;;;;;;13.35;52.71;96927.47;1817347;78;21082;-72
2021/05/07 06:29:53;;;;;;;3.33;2.05;;;;;;;13.26;53.02;96917.97;1821107;78;21110;-72
2021/05/07 06:32:19;;;;;;;2.22;1.67;;;;;;;13.38;53.07;96919.45;1817306;78;22110;-72
2021/05/07 06:34:45;;;;;;;2.67;1.65;;;;;;;13.59;53.51;96910.57;1791517;78;21106;-72
2021/05/07 06:37:12;;;;;;;2.50;1.10;;;;;;;13.81;52.71;96910.33;1817452;78;21054;-73
2021/05/07 06:39:38;;;;;;;3.30;1.70;;;;;;;13.88;52.16;96903.81;1821084;78;21067;-72
2021/05/07 06:42:05;;;;;;;3.80;1.85;;;;;;;14.00;52.29;96912.64;1787881;79;21091;-72
2021/05/07 06:44:31;;;;;;;4.65;2.17;;;;;;;14.09;52.00;96913.39;1821020;78;21183;-73
2021/05/07 06:46:58;;;;;;;4.25;3.22;;;;;;;14.22;51.10;96915.66;1817308;79;21043;-72
2021/05/07 06:49:24;;;;;;;3.47;1.25;;;;;;;14.22;51.03;96917.02;1821173;78;21507;-73
2021/05/07 06:51:50;;;;;;;2.30;1.47;;;;;;;14.45;50.42;96935.24;1817323;79;21078;-72
2021/05/07 06:54:17;;;;;;;6.55;1.90;;;;;;;14.92;50.20;96918.94;1821048;78;21385;-72
2021/05/07 06:56:43;;;;;;;2.47;1.35;;;;;;;15.17;49.29;96916.31;1817414;79;22211;-73
2021/05/07 06:59:09;;;;;;;2.72;1.60;;;;;;;15.42;49.87;96917.19;1821155;78;21420;-73
2021/05/07 07:01:36;;;;;;;4.17;1.32;;;;;;;15.53;49.53;96915.61;1817323;79;21055;-73
2021/05/07 07:04:04;;;;;;;3.08;1.90;;;;;;;15.58;49.88;96921.44;1814383;79;21162;-72
2021/05/07 07:06:30;;;;;;;6.97;1.50;;;;;;;15.75;49.47;96920.70;1821174;78;21394;-72
2021/05/07 07:08:56;;;;;;;6.42;3.67;;;;;;;15.96;49.95;96921.95;1817325;79;21264;-72
2021/05/07 07:11:22;;;;;;;3.10;1.70;;;;;;;16.21;48.60;96918.65;1820976;78;21138;-73
2021/05/07 07:13:48;;;;;;;3.60;1.75;;;;;;;16.18;48.84;96930.84;1817328;79;21032;-73
2021/05/07 07:16:15;;;;;;;1.87;1.40;;;;;;;16.13;48.15;96923.66;1821159;78;21558;-73
2021/05/07 07:18:42;;;;;;;3.30;1.72;;;;;;;15.71;48.75;96922.49;1817340;79;21011;-72
2021/05/07 07:21:08;;;;;;;4.03;1.82;;;;;;;15.26;49.41;96927.14;1821036;78;21199;-72
2021/05/07 07:23:36;;;;;;;2.67;1.60;;;;;;;15.36;49.58;96930.23;1817310;79;21186;-73
2021/05/07 07:26:08;;;;;;;2.85;1.32;;;;;;;16.17;48.42;96921.06;1821003;78;21138;-73
2021/05/07 07:28:33;;;;;;;2.98;1.60;;;;;;;16.21;48.32;96922.75;1816730;79;21142;-72
2021/05/07 07:30:59;;;;;;;2.58;1.50;;;;;;;16.44;48.51;96923.08;1821087;78;21492;-72
2021/05/07 07:33:25;;;;;;;3.55;1.60;;;;;;;16.55;47.90;96938.44;1817290;79;21469;-73
2021/05/07 07:35:51;;;;;;;4.12;2.05;;;;;;;17.09;46.29;96922.49;1821011;78;21583;-73
2021/05/07 07:38:18;;;;;;;5.45;1.75;;;;;;;17.49;45.41;96916.13;1817192;78;21034;-73
2021/05/07 07:40:44;;;;;;;2.60;1.60;;;;;;;18.14;45.20;96919.37;1821107;78;21106;-73
2021/05/07 07:43:10;;;;;;;1.70;1.00;;;;;;;18.68;44.56;96916.50;1817314;78;21059;-73
2021/05/07 07:45:36;;;;;;;4.83;2.00;;;;;;;19.01;42.83;96916.81;1820963;78;21267;-72
2021/05/07 07:48:03;;;;;;;2.05;1.45;;;;;;;18.18;41.73;96933.94;1817359;79;21113;-72
2021/05/07 07:50:29;;;;;;;9.18;2.92;;;;;;;17.77;43.06;96938.00;1821045;78;21444;-72
2021/05/07 07:52:55;;;;;;;1.90;1.50;;;;;;;18.71;42.26;96937.72;1817331;79;21106;-73
2021/05/07 07:55:21;;;;;;;6.47;2.55;;;;;;;18.57;41.66;96943.09;1804850;78;21174;-73
2021/05/07 07:57:47;;;;;;;2.42;1.65;;;;;;;18.50;41.52;96940.19;1790882;79;21196;-72
2021/05/07 08:00:14;;;;;;;2.80;1.37;;;;;;;18.54;39.53;96930.10;1802662;79;21095;-73
2021/05/07 08:02:40;;;;;;;1.65;1.05;;;;;;;17.57;41.28;96935.70;1791042;79;21413;-73
2021/05/07 08:05:08;;;;;;;2.42;1.20;;;;;;;17.38;41.97;96936.95;1802826;79;21521;-72
2021/05/07 08:07:34;;;;;;;2.22;1.12;;;;;;;16.82;42.97;96954.70;1791227;79;21074;-72
2021/05/07 08:10:01;;;;;;;2.20;1.30;;;;;;;16.47;42.84;96948.36;1802725;79;22126;-72
2021/05/07 08:12:27;;;;;;;3.12;1.30;;;;;;;15.84;43.82;96961.56;1790808;79;21101;-72
2021/05/07 08:14:53;;;;;;;1.32;1.00;;;;;;;15.81;43.94;96959.52;1802816;79;21478;-72
2021/05/07 08:17:19;;;;;;;5.08;1.27;;;;;;;15.86;43.67;96952.45;1790954;79;20994;-72
2021/05/07 08:19:46;;;;;;;2.72;1.52;;;;;;;15.81;43.88;96941.77;1802744;79;21100;-72
2021/05/07 08:22:12;;;;;;;2.42;1.50;;;;;;;17.66;42.10;96924.01;1790919;79;21126;-73
2021/05/07 08:24:38;;;;;;;1.65;1.10;;;;;;;18.85;38.59;96941.58;1802698;79;21035;-73
2021/05/07 08:27:05;;;;;;;4.17;1.80;;;;;;;18.41;39.36;96921.76;1791033;79;21098;-72
2021/05/07 08:29:31;;;;;;;4.37;1.20;;;;;;;19.08;38.62;96925.78;1802726;79;21020;-72
2021/05/07 08:31:57;;;;;;;2.30;1.60;;;;;;;19.38;37.99;96933.62;1791053;79;21399;-72
2021/05/07 08:34:23;;;;;;;2.95;1.30;;;;;;;18.44;39.38;96956.69;1802836;79;21191;-72
2021/05/07 08:36:49;;;;;;;3.58;1.95;;;;;;;17.69;40.23;96952.09;1790969;79;21082;-72
2021/05/07 08:39:16;;;;;;;1.70;1.30;;;;;;;16.96;41.32;96952.97;1802816;79;21092;-72
2021/05/07 08:41:44;;;;;;;2.72;1.82;;;;;;;16.55;42.61;96948.80;1790936;79;21597;-72
2021/05/07 08:44:10;;;;;;;4.55;2.33;;;;;;;16.32;43.11;96952.61;1823081;78;21380;-73
2021/05/07 08:46:38;;;;;;;2.40;1.70;;;;;;;15.91;44.03;96959.64;1802731;79;21185;-72
2021/05/07 08:49:05;;;;;;;2.70;1.92;;;;;;;15.50;45.39;96964.86;1765020;80;21439;-73
2021/05/07 08:51:31;;;;;;;2.70;1.55;;;;;;;15.39;45.63;96965.06;1802683;79;21059;-73
2021/05/07 08:53:57;;;;;;;2.15;1.50;;;;;;;15.41;46.03;96968.82;1795592;78;21408;-73
2021/05/07 08:56:23;;;;;;;3.02;1.60;;;;;;;15.41;46.30;96975.64;1821150;78;21059;-73
2021/05/07 08:58:49;;;;;;;1.90;1.30;;;;;;;15.21;46.42;96982.70;1817301;79;21257;-73
2021/05/07 09:01:15;;;;;;;4.65;2.25;;;;;;;15.12;46.11;96991.53;1820926;78;21143;-73
2021/05/07 09:03:49;;;;;;;2.00;1.42;;;;;;;14.89;46.43;96992.45;1817334;79;21154;-73
2021/05/07 09:06:22;;;;;;;3.12;1.42;;;;;;;14.81;47.13;96992.75;1821256;78;21094;-72
2021/05/07 09:08:49;;;;;;;2.75;1.47;;;;;;;15.01;47.00;96995.81;1817435;79;21051;-72
2021/05/07 09:11:16;;;;;;;9.48;1.95;;;;;;;15.17;46.60;96986.69;1814616;79;21260;-72
2021/05/07 09:13:42;;;;;;;2.58;2.00;;;;;;;15.19;46.58;96994.53;1821082;78;21127;-72
2021/05/07 09:16:10;;;;;;;3.92;1.95;;;;;;;15.88;46.03;96975.33;1817337;79;21135;-72
2021/05/07 09:18:46;;;;;;;4.65;2.55;;;;;;;16.62;44.98;96975.00;1821144;78;21094;-73
2021/05/07 09:21:14;;;;;;;4.25;2.42;;;;;;;17.36;43.69;96968.80;1816712;79;21150;-74
2021/05/07 09:23:46;;;;;;;1.82;1.10;;;;;;;19.12;40.27;96986.45;1821073;78;22076;-74
2021/05/07 09:26:12;;;;;;;1.57;1.10;;;;;;;20.82;37.54;96983.05;1817324;79;21138;-74
2021/05/07 09:28:39;;;;;;;2.77;1.62;;;;;;;22.10;35.19;96992.11;1821162;78;21130;-74
2021/05/07 09:31:10;;;;;;;2.90;1.40;;;;;;;21.73;35.52;96999.79;1817485;78;21534;-74
2021/05/07 09:33:43;;;;;;;3.35;1.47;;;;;;;20.18;36.33;97000.70;1821212;78;21496;-73
2021/05/07 09:36:09;;;;;;;2.72;1.47;;;;;;;18.82;39.50;97019.72;1816857;79;21198;-73
2021/05/07 09:38:36;;;;;;;8.33;2.17;;;;;;;18.27;40.76;97014.06;1821153;78;21114;-73
2021/05/07 09:41:03;;;;;;;3.15;1.22;;;;;;;17.67;41.94;97018.73;1817373;78;21153;-73
2021/05/07 09:43:30;;;;;;;2.55;1.10;;;;;;;17.16;43.37;97020.41;1821072;78;21075;-73
2021/05/07 09:45:56;;;;;;;1.55;1.15;;;;;;;16.71;44.00;97029.61;1817422;79;21094;-73
2021/05/07 09:48:25;;;;;;;5.40;2.10;;;;;;;16.29;44.80;97039.94;1821086;78;21183;-73
2021/05/07 09:51:03;;;;;;;2.55;1.67;;;;;;;16.42;44.48;97033.36;1817526;79;21452;-73
2021/05/07 09:53:32;;;;;;;2.42;1.77;;;;;;;16.68;44.00;97040.42;1794284;78;21079;-72
2021/05/07 09:56:03;;;;;;;2.67;1.45;;;;;;;17.16;43.51;97023.14;1820286;78;21035;-72
2021/05/07 09:58:27;;;;;;;3.47;2.27;;;;;;;16.86;44.12;97030.28;1823649;78;21107;-73
2021/05/07 10:00:57;;;;;;;8.28;5.53;;;;;;;16.94;44.37;97036.78;1820606;78;22095;-73
2021/05/07 10:03:25;;;;;;;5.05;4.35;;;;;;;17.14;44.19;97035.02;1824101;78;21384;-73
2021/05/07 10:05:51;;;;;;;2.75;1.77;;;;;;;17.42;44.14;97030.94;1820668;78;21420;-72
2021/05/07 10:08:18;;;;;;;3.80;1.40;;;;;;;17.80;42.93;97019.52;1824361;78;21406;-73
2021/05/07 10:10:45;;;;;;;5.42;1.15;;;;;;;18.04;41.84;97024.06;1820550;78;21088;-72
2021/05/07 10:13:16;;;;;;;1.40;1.00;;;;;;;19.19;39.01;97003.66;1824250;78;21175;-72
2021/05/07 10:15:43;;;;;;;2.33;1.60;;;;;;;19.96;37.24;97002.27;1820500;78;21117;-72
2021/05/07 10:18:24;;;;;;;1.65;1.25;;;;;;;21.93;34.80;97001.17;1824340;78;21098;-73
2021/05/07 10:21:11;;;;;;;1.80;1.15;;;;;;;23.67;32.24;96990.39;1820525;78;21133;-74
2021/05/07 10:23:52;;;;;;;1.98;1.45;;;;;;;25.48;28.93;96980.69;1824577;78;21095;-73
2021/05/07 10:26:18;;;;;;;1.10;0.90;;;;;;;26.03;28.77;96980.63;1820652;78;21401;-73
2021/05/07 10:28:52;;;;;;;1.70;1.10;;;;;;;27.52;27.53;96988.23;1824241;78;21165;-73
2021/05/07 10:31:20;;;;;;;2.00;1.00;;;;;;;28.31;25.49;96994.95;1820418;78;21025;-74
2021/05/07 10:34:02;;;;;;;1.55;1.00;;;;;;;24.94;27.79;96996.64;1824354;78;21090;-74
2021/05/07 10:36:43;;;;;;;2.80;1.37;;;;;;;23.90;30.02;97000.54;1820619;78;21567;-73
2021/05/07 10:39:29;;;;;;;2.65;1.07;;;;;;;24.81;29.09;96985.80;1824288;78;21225;-74
2021/05/07 10:41:59;;;;;;;3.35;2.50;;;;;;;23.61;29.44;96992.17;1792915;78;21098;-73
2021/05/07 10:44:26;;;;;;;3.10;0.90;;;;;;;21.29;32.05;96997.70;1820219;78;21114;-73
2021/05/07 10:47:07;;;;;;;2.83;1.40;;;;;;;21.28;33.06;97006.34;1824583;78;21146;-73
2021/05/07 10:49:46;;;;;;;2.80;1.30;;;;;;;23.36;30.43;97011.39;1820631;78;21121;-72
2021/05/07 10:52:14;;;;;;;1.95;1.00;;;;;;;25.35;26.95;97005.88;1824163;78;21195;-73
2021/05/07 10:54:46;;;;;;;4.45;2.15;;;;;;;26.73;26.48;97000.73;1819873;78;21758;-73
2021/05/07 10:57:27;;;;;;;2.70;1.27;;;;;;;28.26;25.40;97006.53;1821043;78;21094;-74
2021/05/07 11:00:02;;;;;;;2.02;1.00;;;;;;;29.56;23.85;97006.11;1817276;79;21145;-74
2021/05/07 11:02:29;;;;;;;1.10;0.80;;;;;;;28.90;24.01;97011.13;1821191;78;21098;-74
2021/05/07 11:04:55;;;;;;;2.35;1.00;;;;;;;27.13;24.69;97020.64;1787826;79;21267;-74
2021/05/07 11:07:30;;;;;;;3.02;1.20;;;;;;;26.25;25.02;96999.33;1821073;78;21019;-74
2021/05/07 11:10:12;;;;;;;1.15;0.75;;;;;;;23.59;27.61;96995.10;1817331;79;21031;-74
2021/05/07 11:12:43;;;;;;;2.60;1.40;;;;;;;24.80;26.88;96993.91;1815839;78;21024;-74
2021/05/07 11:15:18;;;;;;;2.40;1.32;;;;;;;27.78;23.16;96994.48;1817366;79;21488;-74
2021/05/07 11:17:45;;;;;;;1.82;0.70;;;;;;;28.88;21.88;96985.05;1821039;78;21182;-74
2021/05/07 11:20:11;;;;;;;1.52;0.60;;;;;;;30.00;21.13;96975.48;1817288;79;21067;-75
2021/05/07 11:22:40;;;;;;;3.85;0.70;;;;;;;31.60;20.31;96970.62;1821070;78;21417;-75
2021/05/07 11:25:07;;;;;;;2.25;1.30;;;;;;;31.60;20.31;96970.62;1788381;79;21095;-74
2021/05/07 11:27:36;;;;;;;2.85;0.80;;;;;;;32.11;18.58;96963.71;1791529;78;21084;-74
2021/05/07 11:30:06;;;;;;;1.85;0.80;;;;;;;31.44;18.59;96960.89;1817192;79;21188;-74
2021/05/07 11:32:32;;;;;;;1.92;0.75;;;;;;;30.75;19.47;96965.94;1820964;78;21119;-74
2021/05/07 11:35:10;;;;;;;1.32;0.70;;;;;;;29.23;19.84;96960.53;1817391;78;21424;-74
2021/05/07 11:37:44;;;;;;;1.57;0.70;;;;;;;28.09;21.17;96977.73;1821097;78;21047;-74
2021/05/07 11:40:12;;;;;;;2.20;0.88;;;;;;;28.29;19.94;96986.23;1817449;78;21003;-74